createdAt,value
2023-05-19T05:44:03.004Z,8.13
2023-05-19T05:46:52.643Z,8.68
2023-05-19T05:49:40.497Z,7.93
2023-05-19T05:52:31.092Z,7.55
2023-05-19T05:55:21.700Z,7.90
2023-05-19T05:58:11.613Z,6.05
2023-05-19T06:00:57.925Z,7.47
2023-05-19T06:03:45.208Z,7.95
2023-05-19T06:06:31.430Z,6.03
2023-05-19T06:09:17.257Z,6.72
2023-05-19T06:12:03.021Z,7.03
2023-05-19T06:14:48.515Z,8.32
2023-05-19T06:17:37.263Z,7.97
2023-05-19T06:20:22.850Z,7.03
2023-05-19T06:23:08.736Z,6.87
2023-05-19T06:25:54.372Z,6.93
2023-05-19T06:28:39.919Z,7.28
2023-05-19T06:31:26.789Z,6.65
2023-05-19T06:34:15.021Z,5.80
2023-05-19T06:37:02.528Z,6.22
2023-05-19T06:39:49.715Z,6.97
2023-05-19T06:42:35.206Z,5.65
2023-05-19T06:45:22.502Z,6.28
2023-05-19T06:48:09.804Z,6.62
2023-05-19T06:50:57.077Z,6.20
2023-05-19T06:53:42.785Z,6.45
2023-05-19T06:56:28.315Z,7.78
2023-05-19T06:59:13.902Z,6.20
2023-05-19T07:02:02.624Z,5.62
2023-05-19T07:04:48.072Z,6.93
2023-05-19T07:07:36.286Z,7.47
2023-05-19T07:10:22.122Z,7.10
2023-05-19T07:13:10.802Z,6.72
2023-05-19T07:15:56.322Z,5.82
2023-05-19T07:18:41.646Z,5.65
2023-05-19T07:21:27.002Z,7.57
2023-05-19T07:24:12.216Z,6.10
2023-05-19T07:26:58.178Z,6.12
2023-05-19T07:29:44.029Z,6.40
2023-05-19T07:32:29.326Z,6.15
2023-05-19T07:35:14.606Z,5.93
2023-05-19T07:37:59.904Z,5.87
2023-05-19T07:40:45.513Z,4.82
2023-05-19T07:43:34.308Z,4.97
2023-05-19T07:46:19.818Z,3.53
2023-05-19T07:49:05.117Z,3.50
2023-05-19T07:52:39.868Z,3.40
2023-05-19T07:55:26.375Z,3.67
2023-05-19T07:58:13.079Z,3.83
2023-05-19T08:00:59.092Z,3.37
2023-05-19T08:03:44.767Z,4.37
2023-05-19T08:06:30.167Z,3.80
2023-05-19T08:09:15.877Z,4.05
2023-05-19T08:12:02.334Z,4.30
2023-05-19T08:14:48.049Z,4.35
2023-05-19T08:17:33.644Z,5.30
2023-05-19T08:20:19.647Z,4.28
2023-05-19T08:23:05.586Z,4.40
2023-05-19T08:25:51.367Z,4.40
2023-05-19T08:28:36.655Z,4.60
2023-05-19T08:31:22.713Z,4.40
2023-05-19T08:34:08.056Z,3.97
2023-05-19T08:36:53.723Z,4.62
2023-05-19T08:39:39.463Z,4.43
2023-05-19T08:42:24.789Z,4.18
2023-05-19T08:45:10.937Z,4.53
2023-05-19T08:47:57.189Z,4.80
2023-05-19T08:50:47.549Z,4.50
2023-05-19T08:53:38.181Z,6.07
2023-05-19T08:56:26.822Z,4.50
2023-05-19T08:59:14.341Z,4.47
2023-05-19T09:02:00.012Z,4.82
2023-05-19T09:04:47.856Z,4.28
2023-05-19T09:07:35.031Z,4.22
2023-05-19T09:10:20.858Z,4.75
2023-05-19T09:13:07.907Z,5.05
2023-05-19T09:15:53.786Z,4.75
2023-05-19T09:18:40.687Z,5.20
2023-05-19T09:21:33.178Z,4.40
2023-05-19T09:24:19.450Z,4.73
2023-05-19T09:27:05.316Z,4.93
2023-05-19T09:29:51.159Z,4.78
2023-05-19T09:32:37.022Z,6.30
2023-05-19T09:35:22.630Z,4.68
2023-05-19T09:38:07.822Z,4.30
2023-05-19T09:40:58.443Z,4.75
2023-05-19T09:43:44.225Z,5.10
2023-05-19T09:46:34.076Z,4.60
2023-05-19T09:49:22.053Z,5.37
2023-05-19T09:52:11.031Z,4.95
2023-05-19T09:54:56.960Z,4.62
2023-05-19T09:57:42.569Z,4.15
2023-05-19T10:00:34.786Z,3.80
2023-05-19T10:03:22.558Z,4.45
2023-05-19T10:06:09.377Z,4.53
2023-05-19T10:08:55.188Z,3.72
2023-05-19T10:11:41.583Z,4.05
2023-05-19T10:14:29.034Z,3.85
2023-05-19T10:17:14.806Z,4.05
2023-05-19T10:20:00.954Z,4.00
2023-05-19T10:22:46.624Z,3.58
2023-05-19T10:25:33.768Z,3.80
2023-05-19T10:28:21.214Z,3.55
2023-05-19T10:31:08.560Z,3.30
2023-05-19T10:34:12.585Z,3.58
2023-05-19T10:37:25.034Z,3.33
2023-05-19T10:40:29.810Z,3.30
2023-05-19T10:43:53.161Z,3.53
2023-05-19T10:46:40.626Z,3.30
2023-05-19T10:49:26.195Z,2.58
2023-05-19T10:52:22.187Z,3.08
2023-05-19T10:55:09.546Z,3.85
2023-05-19T10:57:56.985Z,3.15
2023-05-19T11:00:42.491Z,2.90
2023-05-19T11:03:44.766Z,2.78
2023-05-19T11:06:32.142Z,2.72
2023-05-19T11:09:34.011Z,2.90
2023-05-19T11:12:25.350Z,2.30
2023-05-19T11:15:15.094Z,2.30
2023-05-19T11:18:02.334Z,2.70
2023-05-19T11:20:58.237Z,2.37
2023-05-19T11:23:44.075Z,2.60
2023-05-19T11:26:43.459Z,3.28
2023-05-19T11:29:29.118Z,2.95
2023-05-19T11:32:20.076Z,3.05
2023-05-19T11:35:06.095Z,3.40
2023-05-19T11:37:55.027Z,2.95
2023-05-19T11:40:42.025Z,3.22
2023-05-19T11:43:27.601Z,2.97
2023-05-19T11:46:12.787Z,2.72
2023-05-19T11:48:57.998Z,2.83
2023-05-19T11:51:43.931Z,2.50
